sensor_id;sensor_type;location;lat;lon;timestamp;pressure;altitude;pressure_sealevel;temperature;humidity
16664;BME280;8445;51.270;9.434;2023-04-09T00:02:15;100427.84;;;7.17;65.03
16664;BME280;8445;51.270;9.434;2023-04-09T00:04:41;100425.28;;;7.15;64.95
16664;BME280;8445;51.270;9.434;2023-04-09T00:07:06;100422.72;;;7.14;65.00
16664;BME280;8445;51.270;9.434;2023-04-09T00:09:32;100430.63;;;7.14;65.14
16664;BME280;8445;51.270;9.434;2023-04-09T00:11:57;100428.97;;;7.11;65.13
16664;BME280;8445;51.270;9.434;2023-04-09T00:14:23;100422.00;;;7.10;65.07
16664;BME280;8445;51.270;9.434;2023-04-09T00:16:49;100424.75;;;7.07;65.61
16664;BME280;8445;51.270;9.434;2023-04-09T00:19:14;100422.34;;;7.02;64.97
16664;BME280;8445;51.270;9.434;2023-04-09T00:21:41;100417.22;;;6.99;65.35
16664;BME280;8445;51.270;9.434;2023-04-09T00:24:07;100425.13;;;6.99;65.41
16664;BME280;8445;51.270;9.434;2023-04-09T00:26:32;100424.28;;;6.99;65.59
16664;BME280;8445;51.270;9.434;2023-04-09T00:28:58;100416.31;;;7.00;65.14
16664;BME280;8445;51.270;9.434;2023-04-09T00:31:23;100419.72;;;7.02;65.37
16664;BME280;8445;51.270;9.434;2023-04-09T00:33:49;100422.13;;;7.07;65.22
16664;BME280;8445;51.270;9.434;2023-04-09T00:36:15;100425.63;;;7.07;65.13
16664;BME280;8445;51.270;9.434;2023-04-09T00:38:40;100423.00;;;7.07;65.18
16664;BME280;8445;51.270;9.434;2023-04-09T00:41:06;100423.84;;;7.08;65.37
16664;BME280;8445;51.270;9.434;2023-04-09T00:43:31;100422.13;;;7.07;65.52
16664;BME280;8445;51.270;9.434;2023-04-09T00:45:57;100418.75;;;7.05;65.50
16664;BME280;8445;51.270;9.434;2023-04-09T00:48:23;100424.94;;;7.04;66.88
16664;BME280;8445;51.270;9.434;2023-04-09T00:50:49;100418.75;;;7.05;65.99
16664;BME280;8445;51.270;9.434;2023-04-09T00:53:15;100423.84;;;7.08;65.74
16664;BME280;8445;51.270;9.434;2023-04-09T00:55:41;100422.13;;;7.07;65.56
16664;BME280;8445;51.270;9.434;2023-04-09T00:58:07;100424.13;;;7.02;65.91
16664;BME280;8445;51.270;9.434;2023-04-09T01:00:33;100419.00;;;6.99;66.08
16664;BME280;8445;51.270;9.434;2023-04-09T01:02:59;100413.75;;;6.99;65.93
16664;BME280;8445;51.270;9.434;2023-04-09T01:05:35;100414.69;;;6.97;65.82
16664;BME280;8445;51.270;9.434;2023-04-09T01:08:18;100420.84;;;6.96;65.95
16664;BME280;8445;51.270;9.434;2023-04-09T01:11:03;100417.56;;;6.91;65.73
16664;BME280;8445;51.270;9.434;2023-04-09T01:13:48;100410.75;;;6.87;66.26
16664;BME280;8445;51.270;9.434;2023-04-09T01:16:21;100402.06;;;6.85;66.09
16664;BME280;8445;51.270;9.434;2023-04-09T01:18:55;100404.25;;;6.75;66.06
16664;BME280;8445;51.270;9.434;2023-04-09T01:21:30;100406.28;;;6.68;65.97
16664;BME280;8445;51.270;9.434;2023-04-09T01:27:05;100401.09;;;6.67;66.49
16664;BME280;8445;51.270;9.434;2023-04-09T01:29:59;100401.66;;;6.53;65.93
16664;BME280;8445;51.270;9.434;2023-04-09T01:32:34;100396.03;;;6.42;65.66
16664;BME280;8445;51.270;9.434;2023-04-09T01:35:07;100388.53;;;6.32;65.79
16664;BME280;8445;51.270;9.434;2023-04-09T01:37:37;100401.97;;;6.25;65.70
16664;BME280;8445;51.270;9.434;2023-04-09T01:40:09;100402.09;;;6.21;66.99
16664;BME280;8445;51.270;9.434;2023-04-09T01:42:40;100406.25;;;6.27;66.49
16664;BME280;8445;51.270;9.434;2023-04-09T01:45:10;100401.00;;;6.27;66.35
16664;BME280;8445;51.270;9.434;2023-04-09T01:47:40;100402.72;;;6.28;66.22
16664;BME280;8445;51.270;9.434;2023-04-09T01:50:14;100404.31;;;6.32;66.25
16664;BME280;8445;51.270;9.434;2023-04-09T01:52:43;100408.69;;;6.32;67.15
16664;BME280;8445;51.270;9.434;2023-04-09T01:55:12;100408.56;;;6.35;66.68
16664;BME280;8445;51.270;9.434;2023-04-09T01:57:41;100409.47;;;6.34;66.83
16664;BME280;8445;51.270;9.434;2023-04-09T02:00:11;100409.44;;;6.35;67.02
16664;BME280;8445;51.270;9.434;2023-04-09T02:03:06;100408.31;;;6.41;67.04
16664;BME280;8445;51.270;9.434;2023-04-09T02:05:45;100417.06;;;6.42;66.94
16664;BME280;8445;51.270;9.434;2023-04-09T02:08:20;100403.19;;;6.38;66.95
16664;BME280;8445;51.270;9.434;2023-04-09T02:10:55;100411.72;;;6.43;66.69
16664;BME280;8445;51.270;9.434;2023-04-09T02:13:25;100412.59;;;6.44;66.63
16664;BME280;8445;51.270;9.434;2023-04-09T02:15:58;100418.69;;;6.44;66.90
16664;BME280;8445;51.270;9.434;2023-04-09T02:18:29;100418.78;;;6.43;66.56
16664;BME280;8445;51.270;9.434;2023-04-09T02:21:00;100412.47;;;6.47;67.18
16664;BME280;8445;51.270;9.434;2023-04-09T02:23:32;100416.78;;;6.48;66.98
16664;BME280;8445;51.270;9.434;2023-04-09T02:26:02;100417.72;;;6.47;67.37
16664;BME280;8445;51.270;9.434;2023-04-09T02:28:32;100413.19;;;6.50;67.15
16664;BME280;8445;51.270;9.434;2023-04-09T02:31:03;100421.13;;;6.49;67.09
16664;BME280;8445;51.270;9.434;2023-04-09T02:33:33;100418.56;;;6.47;67.52
16664;BME280;8445;51.270;9.434;2023-04-09T02:36:02;100414.22;;;6.46;68.00
16664;BME280;8445;51.270;9.434;2023-04-09T02:38:30;100403.78;;;6.45;68.26
16664;BME280;8445;51.270;9.434;2023-04-09T02:40:58;100406.41;;;6.45;68.31
16664;BME280;8445;51.270;9.434;2023-04-09T02:43:26;100403.94;;;6.42;67.73
16664;BME280;8445;51.270;9.434;2023-04-09T02:45:52;100402.22;;;6.41;67.87
16664;BME280;8445;51.270;9.434;2023-04-09T02:48:18;100404.06;;;6.38;67.83
16664;BME280;8445;51.270;9.434;2023-04-09T02:50:43;100397.09;;;6.37;67.58
16664;BME280;8445;51.270;9.434;2023-04-09T02:53:09;100397.22;;;6.34;67.81
16664;BME280;8445;51.270;9.434;2023-04-09T02:55:34;100390.25;;;6.33;67.88
16664;BME280;8445;51.270;9.434;2023-04-09T02:58:00;100391.16;;;6.32;67.72
16664;BME280;8445;51.270;9.434;2023-04-09T03:00:25;100383.28;;;6.32;67.36
16664;BME280;8445;51.270;9.434;2023-04-09T03:02:52;100388.53;;;6.32;67.64
16664;BME280;8445;51.270;9.434;2023-04-09T03:05:17;100386.69;;;6.34;68.17
16664;BME280;8445;51.270;9.434;2023-04-09T03:07:43;100384.00;;;6.36;67.45
16664;BME280;8445;51.270;9.434;2023-04-09T03:10:08;100378.72;;;6.36;67.49
16664;BME280;8445;51.270;9.434;2023-04-09T03:12:34;100384.78;;;6.38;67.76
16664;BME280;8445;51.270;9.434;2023-04-09T03:15:00;100380.41;;;6.38;67.45
16664;BME280;8445;51.270;9.434;2023-04-09T03:17:25;100389.91;;;6.41;67.20
16664;BME280;8445;51.270;9.434;2023-04-09T03:19:52;100382.91;;;6.42;67.39
16664;BME280;8445;51.270;9.434;2023-04-09T03:22:17;100387.16;;;6.44;67.45
16664;BME280;8445;51.270;9.434;2023-04-09T03:24:43;100384.47;;;6.46;67.62
16664;BME280;8445;51.270;9.434;2023-04-09T03:27:08;100385.31;;;6.46;67.79
16664;BME280;8445;51.270;9.434;2023-04-09T03:29:34;100388.03;;;6.45;67.71
16664;BME280;8445;51.270;9.434;2023-04-09T03:31:59;100381.06;;;6.44;67.63
16664;BME280;8445;51.270;9.434;2023-04-09T03:34:25;100389.72;;;6.46;67.40
16664;BME280;8445;51.270;9.434;2023-04-09T03:36:53;100386.22;;;6.45;67.35
16664;BME280;8445;51.270;9.434;2023-04-09T03:39:25;100384.47;;;6.46;67.45
16664;BME280;8445;51.270;9.434;2023-04-09T03:41:55;100383.69;;;6.44;67.39
16664;BME280;8445;51.270;9.434;2023-04-09T03:44:23;100385.56;;;6.40;67.74
16664;BME280;8445;51.270;9.434;2023-04-09T03:47:05;100380.41;;;6.38;67.74
16664;BME280;8445;51.270;9.434;2023-04-09T03:49:34;100377.91;;;6.35;67.72
16664;BME280;8445;51.270;9.434;2023-04-09T03:52:06;100374.59;;;6.30;67.82
16664;BME280;8445;51.270;9.434;2023-04-09T03:54:36;100378.03;;;6.32;67.84
16664;BME280;8445;51.270;9.434;2023-04-09T03:57:06;100389.59;;;6.28;68.09
16664;BME280;8445;51.270;9.434;2023-04-09T03:59:35;100387.78;;;6.29;68.61
16664;BME280;8445;51.270;9.434;2023-04-09T04:02:01;100383.53;;;6.26;68.61
16664;BME280;8445;51.270;9.434;2023-04-09T04:04:28;100382.75;;;6.24;68.62
16664;BME280;8445;51.270;9.434;2023-04-09T04:06:56;100388.91;;;6.23;69.24
16664;BME280;8445;51.270;9.434;2023-04-09T04:09:22;100387.22;;;6.22;68.88
16664;BME280;8445;51.270;9.434;2023-04-09T04:11:52;100383.66;;;6.23;68.67
16664;BME280;8445;51.270;9.434;2023-04-09T04:14:21;100382.09;;;6.19;68.74
16664;BME280;8445;51.270;9.434;2023-04-09T04:16:53;100393.59;;;6.16;68.99
16664;BME280;8445;51.270;9.434;2023-04-09T04:19:21;100387.47;;;6.16;68.93
16664;BME280;8445;51.270;9.434;2023-04-09T04:21:49;100384.97;;;6.13;69.05
16664;BME280;8445;51.270;9.434;2023-04-09T04:24:15;100386.66;;;6.14;68.96
16664;BME280;8445;51.270;9.434;2023-04-09T04:26:40;100387.59;;;6.13;69.08
16664;BME280;8445;51.270;9.434;2023-04-09T04:29:07;100396.38;;;6.12;68.84
16664;BME280;8445;51.270;9.434;2023-04-09T04:31:54;100396.25;;;6.15;68.75
16664;BME280;8445;51.270;9.434;2023-04-09T04:34:22;100393.75;;;6.12;69.38
16664;BME280;8445;51.270;9.434;2023-04-09T04:36:56;100398.16;;;6.11;68.96
16664;BME280;8445;51.270;9.434;2023-04-09T04:39:21;100406.88;;;6.12;69.06
16664;BME280;8445;51.270;9.434;2023-04-09T04:42:00;100396.34;;;6.13;68.77
16664;BME280;8445;51.270;9.434;2023-04-09T04:44:26;100395.53;;;6.11;69.04
16664;BME280;8445;51.270;9.434;2023-04-09T04:47:07;100398.09;;;6.13;69.30
16664;BME280;8445;51.270;9.434;2023-04-09T04:49:33;100403.22;;;6.16;68.72
16664;BME280;8445;51.270;9.434;2023-04-09T04:52:00;100404.94;;;6.17;68.64
16664;BME280;8445;51.270;9.434;2023-04-09T04:54:26;100399.69;;;6.17;68.91
16664;BME280;8445;51.270;9.434;2023-04-09T04:56:55;100406.53;;;6.21;68.86
16664;BME280;8445;51.270;9.434;2023-04-09T04:59:38;100406.44;;;6.22;68.70
16664;BME280;8445;51.270;9.434;2023-04-09T05:02:06;100409.06;;;6.22;68.54
16664;BME280;8445;51.270;9.434;2023-04-09T05:04:42;100410.72;;;6.25;68.60
16664;BME280;8445;51.270;9.434;2023-04-09T05:07:10;100413.22;;;6.28;68.71
16664;BME280;8445;51.270;9.434;2023-04-09T05:09:43;100407.84;;;6.31;68.83
16664;BME280;8445;51.270;9.434;2023-04-09T05:12:09;100411.28;;;6.33;68.61
16664;BME280;8445;51.270;9.434;2023-04-09T05:14:35;100415.47;;;6.37;69.07
16664;BME280;8445;51.270;9.434;2023-04-09T05:17:00;100413.53;;;6.43;68.84
16664;BME280;8445;51.270;9.434;2023-04-09T05:19:35;100414.09;;;6.49;68.89
16664;BME280;8445;51.270;9.434;2023-04-09T05:22:01;100412.19;;;6.53;69.00
16664;BME280;8445;51.270;9.434;2023-04-09T05:24:27;100422.56;;;6.56;68.90
16664;BME280;8445;51.270;9.434;2023-04-09T05:26:53;100417.19;;;6.59;69.05
16664;BME280;8445;51.270;9.434;2023-04-09T05:29:19;100420.34;;;6.67;68.96
16664;BME280;8445;51.270;9.434;2023-04-09T05:31:44;100419.16;;;6.75;68.94
16664;BME280;8445;51.270;9.434;2023-04-09T05:34:20;100413.38;;;6.87;69.42
16664;BME280;8445;51.270;9.434;2023-04-09T05:36:49;100422.56;;;6.97;69.01
16664;BME280;8445;51.270;9.434;2023-04-09T05:39:15;100416.03;;;7.06;69.23
16664;BME280;8445;51.270;9.434;2023-04-09T05:41:41;100418.16;;;7.17;68.98
16664;BME280;8445;51.270;9.434;2023-04-09T05:44:30;100422.88;;;7.30;69.00
16664;BME280;8445;51.270;9.434;2023-04-09T05:47:04;100420.63;;;7.41;68.86
16664;BME280;8445;51.270;9.434;2023-04-09T05:49:37;100420.06;;;7.53;69.10
16664;BME280;8445;51.270;9.434;2023-04-09T05:52:08;100428.09;;;7.69;69.69
16664;BME280;8445;51.270;9.434;2023-04-09T05:54:34;100427.22;;;7.88;69.61
16664;BME280;8445;51.270;9.434;2023-04-09T05:56:59;100425.63;;;8.03;69.08
16664;BME280;8445;51.270;9.434;2023-04-09T05:59:25;100422.09;;;8.22;68.89
16664;BME280;8445;51.270;9.434;2023-04-09T06:01:52;100426.88;;;8.31;68.73
16664;BME280;8445;51.270;9.434;2023-04-09T06:04:17;100420.47;;;8.37;68.97
16664;BME280;8445;51.270;9.434;2023-04-09T06:06:43;100421.59;;;8.50;68.96
16664;BME280;8445;51.270;9.434;2023-04-09T06:09:08;100426.22;;;8.63;68.93
16664;BME280;8445;51.270;9.434;2023-04-09T06:11:36;100423.06;;;8.73;68.97
16664;BME280;8445;51.270;9.434;2023-04-09T06:14:02;100422.31;;;8.87;68.58
16664;BME280;8445;51.270;9.434;2023-04-09T06:16:27;100419.88;;;9.00;68.77
16664;BME280;8445;51.270;9.434;2023-04-09T06:18:53;100413.97;;;9.13;68.53
16664;BME280;8445;51.270;9.434;2023-04-09T06:21:21;100418.66;;;9.24;68.23
16664;BME280;8445;51.270;9.434;2023-04-09T06:23:47;100418.59;;;9.25;68.01
16664;BME280;8445;51.270;9.434;2023-04-09T06:26:12;100423.16;;;9.22;68.14
16664;BME280;8445;51.270;9.434;2023-04-09T06:28:38;100422.50;;;9.18;68.49
16664;BME280;8445;51.270;9.434;2023-04-09T06:31:03;100422.31;;;9.21;68.72
16664;BME280;8445;51.270;9.434;2023-04-09T06:33:29;100426.50;;;9.25;68.61
16664;BME280;8445;51.270;9.434;2023-04-09T06:35:57;100421.13;;;9.27;68.62
16664;BME280;8445;51.270;9.434;2023-04-09T06:38:23;100424.88;;;9.23;68.41
16664;BME280;8445;51.270;9.434;2023-04-09T06:40:48;100429.31;;;9.22;68.53
16664;BME280;8445;51.270;9.434;2023-04-09T06:43:13;100429.47;;;9.19;68.33
16664;BME280;8445;51.270;9.434;2023-04-09T06:45:47;100429.69;;;9.14;68.52
16664;BME280;8445;51.270;9.434;2023-04-09T06:48:13;100431.50;;;9.14;68.78
16664;BME280;8445;51.270;9.434;2023-04-09T06:50:38;100423.50;;;9.15;68.65
16664;BME280;8445;51.270;9.434;2023-04-09T06:53:05;100434.16;;;9.14;68.61
16664;BME280;8445;51.270;9.434;2023-04-09T06:55:31;100428.53;;;9.20;68.67
16664;BME280;8445;51.270;9.434;2023-04-09T06:57:56;100429.59;;;9.33;68.64
16664;BME280;8445;51.270;9.434;2023-04-09T07:00:21;100431.72;;;9.43;68.49
16664;BME280;8445;51.270;9.434;2023-04-09T07:02:47;100429.59;;;9.49;68.70
16664;BME280;8445;51.270;9.434;2023-04-09T07:05:13;100426.47;;;9.59;68.14
16664;BME280;8445;51.270;9.434;2023-04-09T07:07:38;100426.91;;;9.67;68.03
16664;BME280;8445;51.270;9.434;2023-04-09T07:10:05;100430.38;;;9.68;67.92
16664;BME280;8445;51.270;9.434;2023-04-09T07:12:32;100433.78;;;9.70;67.77
16664;BME280;8445;51.270;9.434;2023-04-09T07:15:01;100429.44;;;9.69;67.85
16664;BME280;8445;51.270;9.434;2023-04-09T07:17:27;100432.94;;;9.69;67.76
16664;BME280;8445;51.270;9.434;2023-04-09T07:19:52;100429.94;;;9.75;67.72
16664;BME280;8445;51.270;9.434;2023-04-09T07:22:22;100435.47;;;9.87;67.45
16664;BME280;8445;51.270;9.434;2023-04-09T07:24:48;100433.09;;;9.98;67.32
16664;BME280;8445;51.270;9.434;2023-04-09T07:27:23;100430.16;;;10.03;67.38
16664;BME280;8445;51.270;9.434;2023-04-09T07:29:50;100435.03;;;10.11;67.24
16664;BME280;8445;51.270;9.434;2023-04-09T07:32:16;100423.44;;;10.13;66.93
16664;BME280;8445;51.270;9.434;2023-04-09T07:34:42;100420.97;;;10.10;66.89
16664;BME280;8445;51.270;9.434;2023-04-09T07:37:08;100424.53;;;10.09;66.63
16664;BME280;8445;51.270;9.434;2023-04-09T07:39:33;100433.16;;;10.13;66.90
16664;BME280;8445;51.270;9.434;2023-04-09T07:42:03;100434.06;;;10.28;66.96
16664;BME280;8445;51.270;9.434;2023-04-09T07:44:32;100434.91;;;10.44;67.12
16664;BME280;8445;51.270;9.434;2023-04-09T07:46:59;100428.63;;;10.61;66.93
16664;BME280;8445;51.270;9.434;2023-04-09T07:49:24;100429.50;;;10.76;66.51
16664;BME280;8445;51.270;9.434;2023-04-09T07:51:50;100420.44;;;10.80;66.75
16664;BME280;8445;51.270;9.434;2023-04-09T07:54:15;100420.72;;;10.90;65.76
16664;BME280;8445;51.270;9.434;2023-04-09T07:56:41;100423.66;;;11.00;66.35
16664;BME280;8445;51.270;9.434;2023-04-09T07:59:06;100427.16;;;11.15;66.63
16664;BME280;8445;51.270;9.434;2023-04-09T08:01:31;100425.09;;;11.35;66.43
16664;BME280;8445;51.270;9.434;2023-04-09T08:03:57;100426.47;;;11.55;66.26
16664;BME280;8445;51.270;9.434;2023-04-09T08:06:22;100427.03;;;11.60;66.02
16664;BME280;8445;51.270;9.434;2023-04-09T08:08:48;100431.59;;;11.58;66.12
16664;BME280;8445;51.270;9.434;2023-04-09T08:11:13;100423.25;;;11.50;65.44
16664;BME280;8445;51.270;9.434;2023-04-09T08:13:39;100425.72;;;11.38;65.27
16664;BME280;8445;51.270;9.434;2023-04-09T08:16:04;100428.19;;;11.27;65.53
16664;BME280;8445;51.270;9.434;2023-04-09T08:18:30;100429.50;;;11.20;65.93
16664;BME280;8445;51.270;9.434;2023-04-09T08:20:56;100429.50;;;11.20;65.45
16664;BME280;8445;51.270;9.434;2023-04-09T08:23:21;100429.25;;;11.24;65.22
16664;BME280;8445;51.270;9.434;2023-04-09T08:25:47;100430.47;;;11.33;65.63
16664;BME280;8445;51.270;9.434;2023-04-09T08:28:12;100427.44;;;11.39;65.30
16664;BME280;8445;51.270;9.434;2023-04-09T08:30:37;100433.88;;;11.35;65.29
16664;BME280;8445;51.270;9.434;2023-04-09T08:33:03;100429.72;;;11.31;65.07
16664;BME280;8445;51.270;9.434;2023-04-09T08:35:30;100435.75;;;11.33;65.02
16664;BME280;8445;51.270;9.434;2023-04-09T08:37:55;100436.72;;;11.32;65.15
16664;BME280;8445;51.270;9.434;2023-04-09T08:40:22;100422.91;;;11.27;64.67
16664;BME280;8445;51.270;9.434;2023-04-09T08:42:52;100433.69;;;11.24;64.68
16664;BME280;8445;51.270;9.434;2023-04-09T08:45:18;100437.19;;;11.24;64.50
16664;BME280;8445;51.270;9.434;2023-04-09T08:47:44;100436.13;;;11.27;64.67
16664;BME280;8445;51.270;9.434;2023-04-09T08:50:10;100439.09;;;11.37;64.66
16664;BME280;8445;51.270;9.434;2023-04-09T08:52:36;100442.19;;;11.44;64.32
16664;BME280;8445;51.270;9.434;2023-04-09T08:55:02;100433.47;;;11.56;64.88
16664;BME280;8445;51.270;9.434;2023-04-09T08:57:28;100433.66;;;11.67;64.86
16664;BME280;8445;51.270;9.434;2023-04-09T08:59:53;100442.38;;;11.97;64.57
16664;BME280;8445;51.270;9.434;2023-04-09T09:02:19;100433.16;;;12.17;63.45
16664;BME280;8445;51.270;9.434;2023-04-09T09:04:48;100443.75;;;12.17;63.47
16664;BME280;8445;51.270;9.434;2023-04-09T09:07:15;100435.59;;;12.20;63.83
16664;BME280;8445;51.270;9.434;2023-04-09T09:10:00;100434.34;;;12.39;64.38
16664;BME280;8445;51.270;9.434;2023-04-09T09:12:40;100436.00;;;12.67;64.44
16664;BME280;8445;51.270;9.434;2023-04-09T09:15:28;100431.03;;;13.01;62.32
16664;BME280;8445;51.270;9.434;2023-04-09T09:17:58;100430.91;;;13.42;64.98
16664;BME280;8445;51.270;9.434;2023-04-09T09:20:24;100430.22;;;13.64;64.67
16664;BME280;8445;51.270;9.434;2023-04-09T09:22:54;100425.84;;;13.76;63.82
16664;BME280;8445;51.270;9.434;2023-04-09T09:25:21;100432.91;;;13.88;64.69
16664;BME280;8445;51.270;9.434;2023-04-09T09:27:51;100429.47;;;13.99;64.85
16664;BME280;8445;51.270;9.434;2023-04-09T09:30:23;100432.00;;;14.01;63.36
16664;BME280;8445;51.270;9.434;2023-04-09T09:32:53;100436.31;;;13.90;62.63
16664;BME280;8445;51.270;9.434;2023-04-09T09:35:19;100421.50;;;13.75;63.35
16664;BME280;8445;51.270;9.434;2023-04-09T09:37:44;100437.91;;;13.56;63.42
16664;BME280;8445;51.270;9.434;2023-04-09T09:40:25;100435.91;;;13.20;60.22
16664;BME280;8445;51.270;9.434;2023-04-09T09:42:57;100421.06;;;13.18;62.46
16664;BME280;8445;51.270;9.434;2023-04-09T09:45:23;100430.19;;;13.14;63.28
16664;BME280;8445;51.270;9.434;2023-04-09T09:47:49;100436.44;;;13.00;63.22
16664;BME280;8445;51.270;9.434;2023-04-09T09:50:15;100430.63;;;12.95;63.63
16664;BME280;8445;51.270;9.434;2023-04-09T09:52:44;100430.53;;;12.83;62.68
16664;BME280;8445;51.270;9.434;2023-04-09T09:55:12;100430.94;;;12.77;63.88
16664;BME280;8445;51.270;9.434;2023-04-09T09:57:41;100426.38;;;12.79;63.51
16664;BME280;8445;51.270;9.434;2023-04-09T10:00:11;100431.78;;;12.90;63.30
16664;BME280;8445;51.270;9.434;2023-04-09T10:02:52;100422.34;;;12.99;63.71
16664;BME280;8445;51.270;9.434;2023-04-09T10:05:19;100427.97;;;13.08;63.87
16664;BME280;8445;51.270;9.434;2023-04-09T10:07:49;100421.69;;;13.22;64.65
16664;BME280;8445;51.270;9.434;2023-04-09T10:10:16;100420.47;;;13.39;64.42
16664;BME280;8445;51.270;9.434;2023-04-09T10:12:42;100416.97;;;13.38;63.05
16664;BME280;8445;51.270;9.434;2023-04-09T10:15:09;100413.91;;;13.44;63.15
16664;BME280;8445;51.270;9.434;2023-04-09T10:17:35;100414.53;;;13.35;63.15
16664;BME280;8445;51.270;9.434;2023-04-09T10:20:29;100420.50;;;13.26;60.30
16664;BME280;8445;51.270;9.434;2023-04-09T10:22:58;100421.59;;;13.23;62.40
16664;BME280;8445;51.270;9.434;2023-04-09T10:25:26;100416.56;;;13.18;63.00
16664;BME280;8445;51.270;9.434;2023-04-09T10:28:05;100410.31;;;13.19;61.76
16664;BME280;8445;51.270;9.434;2023-04-09T10:30:38;100410.53;;;13.16;62.60
16664;BME280;8445;51.270;9.434;2023-04-09T10:33:13;100413.50;;;13.25;62.74
16664;BME280;8445;51.270;9.434;2023-04-09T10:35:38;100406.56;;;13.48;62.88
16664;BME280;8445;51.270;9.434;2023-04-09T10:38:08;100404.91;;;13.71;60.98
16664;BME280;8445;51.270;9.434;2023-04-09T10:40:39;100416.72;;;13.91;62.42
16664;BME280;8445;51.270;9.434;2023-04-09T10:43:05;100412.38;;;13.90;62.34
16664;BME280;8445;51.270;9.434;2023-04-09T10:45:39;100411.19;;;13.94;61.00
16664;BME280;8445;51.270;9.434;2023-04-09T10:48:10;100412.13;;;14.18;61.58
16664;BME280;8445;51.270;9.434;2023-04-09T10:50:37;100414.66;;;14.44;62.23
16664;BME280;8445;51.270;9.434;2023-04-09T10:53:03;100413.97;;;14.53;61.60
16664;BME280;8445;51.270;9.434;2023-04-09T10:57:56;100406.03;;;14.76;61.03
16664;BME280;8445;51.270;9.434;2023-04-09T11:00:22;100408.63;;;15.00;61.18
16664;BME280;8445;51.270;9.434;2023-04-09T11:03:17;100409.81;;;14.85;57.12
16664;BME280;8445;51.270;9.434;2023-04-09T11:05:46;100409.88;;;14.60;60.51
16664;BME280;8445;51.270;9.434;2023-04-09T11:08:15;100406.25;;;14.61;61.69
16664;BME280;8445;51.270;9.434;2023-04-09T11:10:42;100398.53;;;14.70;59.73
16664;BME280;8445;51.270;9.434;2023-04-09T11:13:13;100405.78;;;14.67;59.63
16664;BME280;8445;51.270;9.434;2023-04-09T11:15:38;100400.47;;;14.79;60.38
16664;BME280;8445;51.270;9.434;2023-04-09T11:18:06;100401.84;;;15.19;61.46
16664;BME280;8445;51.270;9.434;2023-04-09T11:20:34;100399.69;;;15.79;61.56
16664;BME280;8445;51.270;9.434;2023-04-09T11:23:00;100400.56;;;16.12;59.77
16664;BME280;8445;51.270;9.434;2023-04-09T11:25:31;100394.22;;;16.25;58.43
16664;BME280;8445;51.270;9.434;2023-04-09T11:27:57;100388.38;;;16.31;59.49
16664;BME280;8445;51.270;9.434;2023-04-09T11:30:22;100384.84;;;16.52;58.91
16664;BME280;8445;51.270;9.434;2023-04-09T11:32:48;100391.78;;;16.85;59.42
16664;BME280;8445;51.270;9.434;2023-04-09T11:35:19;100384.63;;;17.17;59.20
16664;BME280;8445;51.270;9.434;2023-04-09T11:37:48;100386.41;;;17.38;58.62
16664;BME280;8445;51.270;9.434;2023-04-09T11:40:18;100382.38;;;17.53;57.70
16664;BME280;8445;51.270;9.434;2023-04-09T11:42:45;100374.91;;;17.57;57.76
16664;BME280;8445;51.270;9.434;2023-04-09T11:45:11;100383.38;;;17.72;57.56
16664;BME280;8445;51.270;9.434;2023-04-09T11:47:38;100376.50;;;17.99;58.13
16664;BME280;8445;51.270;9.434;2023-04-09T11:50:09;100375.25;;;17.93;57.25
16664;BME280;8445;51.270;9.434;2023-04-09T11:52:35;100373.97;;;17.77;56.74
16664;BME280;8445;51.270;9.434;2023-04-09T11:55:01;100375.31;;;17.52;55.96
16664;BME280;8445;51.270;9.434;2023-04-09T11:57:40;100374.13;;;17.25;50.34
16664;BME280;8445;51.270;9.434;2023-04-09T12:00:18;100376.94;;;17.24;57.15
16664;BME280;8445;51.270;9.434;2023-04-09T12:02:48;100368.66;;;17.37;57.25
16664;BME280;8445;51.270;9.434;2023-04-09T12:05:27;100370.13;;;17.60;55.83
16664;BME280;8445;51.270;9.434;2023-04-09T12:07:58;100369.03;;;17.92;55.51
16664;BME280;8445;51.270;9.434;2023-04-09T12:10:32;100363.44;;;18.15;56.50
16664;BME280;8445;51.270;9.434;2023-04-09T12:13:08;100365.09;;;18.26;52.46
16664;BME280;8445;51.270;9.434;2023-04-09T12:15:39;100369.47;;;18.27;55.37
16664;BME280;8445;51.270;9.434;2023-04-09T12:18:11;100376.69;;;18.07;55.05
16664;BME280;8445;51.270;9.434;2023-04-09T12:20:42;100365.66;;;18.00;54.61
16664;BME280;8445;51.270;9.434;2023-04-09T12:23:10;100361.75;;;18.14;54.38
16664;BME280;8445;51.270;9.434;2023-04-09T12:25:38;100359.59;;;18.37;55.35
16664;BME280;8445;51.270;9.434;2023-04-09T12:28:05;100356.34;;;18.44;53.89
16664;BME280;8445;51.270;9.434;2023-04-09T12:30:31;100347.75;;;18.40;54.37
16664;BME280;8445;51.270;9.434;2023-04-09T12:32:57;100353.16;;;18.20;54.14
16664;BME280;8445;51.270;9.434;2023-04-09T12:35:23;100354.13;;;18.19;53.66
16664;BME280;8445;51.270;9.434;2023-04-09T12:37:49;100355.81;;;18.01;53.52
16664;BME280;8445;51.270;9.434;2023-04-09T12:40:15;100355.50;;;17.74;52.62
16664;BME280;8445;51.270;9.434;2023-04-09T12:42:42;100351.53;;;17.49;52.74
16664;BME280;8445;51.270;9.434;2023-04-09T12:45:09;100347.56;;;17.43;53.37
16664;BME280;8445;51.270;9.434;2023-04-09T12:47:35;100349.13;;;17.46;53.71
16664;BME280;8445;51.270;9.434;2023-04-09T12:50:02;100343.06;;;17.54;53.25
16664;BME280;8445;51.270;9.434;2023-04-09T12:52:29;100340.56;;;17.72;53.22
16664;BME280;8445;51.270;9.434;2023-04-09T12:54:54;100336.50;;;17.77;52.71
16664;BME280;8445;51.270;9.434;2023-04-09T12:57:20;100321.69;;;17.63;52.39
16664;BME280;8445;51.270;9.434;2023-04-09T12:59:45;100325.53;;;17.20;51.35
16664;BME280;8445;51.270;9.434;2023-04-09T13:02:11;100316.41;;;16.82;51.63
16664;BME280;8445;51.270;9.434;2023-04-09T13:04:36;100324.50;;;16.70;51.56
16664;BME280;8445;51.270;9.434;2023-04-09T13:07:02;100323.84;;;16.57;51.33
16664;BME280;8445;51.270;9.434;2023-04-09T13:09:27;100323.50;;;16.40;51.33
16664;BME280;8445;51.270;9.434;2023-04-09T13:11:53;100318.59;;;16.24;51.20
16664;BME280;8445;51.270;9.434;2023-04-09T13:14:18;100313.97;;;16.26;51.25
16664;BME280;8445;51.270;9.434;2023-04-09T13:16:43;100310.69;;;16.34;51.01
16664;BME280;8445;51.270;9.434;2023-04-09T13:19:09;100309.81;;;16.34;51.03